sensor_id;sensor_type;location;lat;lon;timestamp;temperature;humidity
49503;DHT22;35409;48.776;9.204;2024-02-21T05:38:33;5.30;99.90
49503;DHT22;35409;48.776;9.204;2024-02-21T05:40:58;5.20;99.90
49503;DHT22;35409;48.776;9.204;2024-02-21T05:43:24;5.00;99.90
49503;DHT22;35409;48.776;9.204;2024-02-21T05:45:50;5.00;99.90
49503;DHT22;35409;48.776;9.204;2024-02-21T05:48:15;5.00;99.90
49503;DHT22;35409;48.776;9.204;2024-02-21T05:50:41;5.00;99.90
49503;DHT22;35409;48.776;9.204;2024-02-21T05:53:06;5.00;99.90
49503;DHT22;35409;48.776;9.204;2024-02-21T05:55:32;5.00;99.90
49503;DHT22;35409;48.776;9.204;2024-02-21T05:57:58;5.10;99.90
49503;DHT22;35409;48.776;9.204;2024-02-21T06:00:23;5.30;99.90
49503;DHT22;35409;48.776;9.204;2024-02-21T06:02:56;5.40;99.90
49503;DHT22;35409;48.776;9.204;2024-02-21T06:05:25;5.40;99.90
49503;DHT22;35409;48.776;9.204;2024-02-21T06:07:50;5.30;99.90
49503;DHT22;35409;48.776;9.204;2024-02-21T06:10:16;5.30;99.90
49503;DHT22;35409;48.776;9.204;2024-02-21T06:12:43;5.30;99.90
49503;DHT22;35409;48.776;9.204;2024-02-21T06:15:09;5.40;99.90
49503;DHT22;35409;48.776;9.204;2024-02-21T06:17:34;5.50;99.90
49503;DHT22;35409;48.776;9.204;2024-02-21T06:20:00;5.60;99.90
49503;DHT22;35409;48.776;9.204;2024-02-21T06:22:26;5.60;99.90
49503;DHT22;35409;48.776;9.204;2024-02-21T06:24:51;5.60;99.90
49503;DHT22;35409;48.776;9.204;2024-02-21T06:27:19;5.70;99.90
49503;DHT22;35409;48.776;9.204;2024-02-21T06:29:45;5.70;99.90
49503;DHT22;35409;48.776;9.204;2024-02-21T06:32:10;5.70;99.90
49503;DHT22;35409;48.776;9.204;2024-02-21T06:34:36;5.70;99.90
49503;DHT22;35409;48.776;9.204;2024-02-21T06:37:01;5.70;99.90
49503;DHT22;35409;48.776;9.204;2024-02-21T06:39:27;5.70;99.90
49503;DHT22;35409;48.776;9.204;2024-02-21T06:41:54;5.70;99.90
49503;DHT22;35409;48.776;9.204;2024-02-21T06:44:21;5.70;99.90
49503;DHT22;35409;48.776;9.204;2024-02-21T06:46:47;5.70;99.90
49503;DHT22;35409;48.776;9.204;2024-02-21T06:49:12;5.70;99.90
49503;DHT22;35409;48.776;9.204;2024-02-21T06:51:42;5.80;99.90
49503;DHT22;35409;48.776;9.204;2024-02-21T06:54:09;5.90;99.90
49503;DHT22;35409;48.776;9.204;2024-02-21T06:56:36;5.90;99.90
49503;DHT22;35409;48.776;9.204;2024-02-21T06:59:02;6.00;99.90
49503;DHT22;35409;48.776;9.204;2024-02-21T07:01:31;6.10;99.90
49503;DHT22;35409;48.776;9.204;2024-02-21T07:03:56;6.20;99.90
49503;DHT22;35409;48.776;9.204;2024-02-21T07:06:22;6.20;99.90
49503;DHT22;35409;48.776;9.204;2024-02-21T07:08:48;6.20;99.90
49503;DHT22;35409;48.776;9.204;2024-02-21T07:11:14;6.30;99.90
49503;DHT22;35409;48.776;9.204;2024-02-21T07:13:39;6.40;99.90
49503;DHT22;35409;48.776;9.204;2024-02-21T07:16:06;6.40;99.90
49503;DHT22;35409;48.776;9.204;2024-02-21T07:18:32;6.60;99.90
49503;DHT22;35409;48.776;9.204;2024-02-21T07:20:57;6.60;99.90
49503;DHT22;35409;48.776;9.204;2024-02-21T07:23:24;6.70;99.90
49503;DHT22;35409;48.776;9.204;2024-02-21T07:25:49;6.70;99.90
49503;DHT22;35409;48.776;9.204;2024-02-21T07:28:15;6.80;99.90
49503;DHT22;35409;48.776;9.204;2024-02-21T07:30:41;6.80;99.90
49503;DHT22;35409;48.776;9.204;2024-02-21T07:33:07;7.00;99.90
49503;DHT22;35409;48.776;9.204;2024-02-21T07:35:33;7.10;99.90
49503;DHT22;35409;48.776;9.204;2024-02-21T07:37:59;7.20;99.90
49503;DHT22;35409;48.776;9.204;2024-02-21T07:40:24;7.30;99.90
49503;DHT22;35409;48.776;9.204;2024-02-21T07:42:50;7.30;99.90
49503;DHT22;35409;48.776;9.204;2024-02-21T07:45:16;7.40;99.90
49503;DHT22;35409;48.776;9.204;2024-02-21T07:47:41;7.50;99.90
49503;DHT22;35409;48.776;9.204;2024-02-21T07:50:07;7.60;99.90
49503;DHT22;35409;48.776;9.204;2024-02-21T07:52:33;7.60;99.90
49503;DHT22;35409;48.776;9.204;2024-02-21T07:54:59;7.70;99.90
49503;DHT22;35409;48.776;9.204;2024-02-21T07:57:24;7.70;99.90
49503;DHT22;35409;48.776;9.204;2024-02-21T07:59:50;7.80;99.90
49503;DHT22;35409;48.776;9.204;2024-02-21T08:02:15;7.80;99.90
49503;DHT22;35409;48.776;9.204;2024-02-21T08:04:41;7.90;99.90
49503;DHT22;35409;48.776;9.204;2024-02-21T08:07:07;7.90;99.90
49503;DHT22;35409;48.776;9.204;2024-02-21T08:09:33;8.00;99.90
49503;DHT22;35409;48.776;9.204;2024-02-21T08:11:58;8.10;99.90
49503;DHT22;35409;48.776;9.204;2024-02-21T08:14:24;8.20;99.90
49503;DHT22;35409;48.776;9.204;2024-02-21T08:16:53;8.20;99.90
49503;DHT22;35409;48.776;9.204;2024-02-21T08:19:20;8.40;99.90
49503;DHT22;35409;48.776;9.204;2024-02-21T08:21:45;8.50;99.90
49503;DHT22;35409;48.776;9.204;2024-02-21T08:24:14;8.60;99.90
49503;DHT22;35409;48.776;9.204;2024-02-21T08:31:36;8.90;99.90
49503;DHT22;35409;48.776;9.204;2024-02-21T08:34:02;9.00;99.90
49503;DHT22;35409;48.776;9.204;2024-02-21T08:36:32;8.90;99.90
49503;DHT22;35409;48.776;9.204;2024-02-21T08:38:58;9.00;99.90
49503;DHT22;35409;48.776;9.204;2024-02-21T08:41:24;9.10;99.90
49503;DHT22;35409;48.776;9.204;2024-02-21T08:43:51;9.20;99.90
49503;DHT22;35409;48.776;9.204;2024-02-21T08:46:17;9.30;99.90
49503;DHT22;35409;48.776;9.204;2024-02-21T08:48:44;9.30;99.90
49503;DHT22;35409;48.776;9.204;2024-02-21T08:51:13;9.40;99.90
49503;DHT22;35409;48.776;9.204;2024-02-21T08:53:39;9.50;99.90
49503;DHT22;35409;48.776;9.204;2024-02-21T08:56:05;9.50;99.90
49503;DHT22;35409;48.776;9.204;2024-02-21T08:58:31;9.60;99.90
49503;DHT22;35409;48.776;9.204;2024-02-21T09:00:56;9.60;99.90
49503;DHT22;35409;48.776;9.204;2024-02-21T09:03:22;9.70;99.90
49503;DHT22;35409;48.776;9.204;2024-02-21T09:05:48;9.80;99.90
49503;DHT22;35409;48.776;9.204;2024-02-21T09:08:14;9.80;99.90
49503;DHT22;35409;48.776;9.204;2024-02-21T09:10:40;9.80;99.90
49503;DHT22;35409;48.776;9.204;2024-02-21T09:13:05;9.80;99.90
49503;DHT22;35409;48.776;9.204;2024-02-21T09:15:33;9.80;99.90
49503;DHT22;35409;48.776;9.204;2024-02-21T09:17:58;9.90;99.90
49503;DHT22;35409;48.776;9.204;2024-02-21T09:20:24;9.80;99.90
49503;DHT22;35409;48.776;9.204;2024-02-21T09:22:49;9.90;99.90
49503;DHT22;35409;48.776;9.204;2024-02-21T09:25:15;9.90;99.90
49503;DHT22;35409;48.776;9.204;2024-02-21T09:27:43;10.00;99.90
49503;DHT22;35409;48.776;9.204;2024-02-21T09:30:09;10.00;99.90
49503;DHT22;35409;48.776;9.204;2024-02-21T09:32:35;9.90;99.90
49503;DHT22;35409;48.776;9.204;2024-02-21T09:35:01;10.00;99.90
49503;DHT22;35409;48.776;9.204;2024-02-21T09:37:27;10.00;99.90
49503;DHT22;35409;48.776;9.204;2024-02-21T09:39:53;10.10;99.90
49503;DHT22;35409;48.776;9.204;2024-02-21T09:42:20;10.10;99.90
49503;DHT22;35409;48.776;9.204;2024-02-21T09:44:47;10.10;99.90
49503;DHT22;35409;48.776;9.204;2024-02-21T09:49:44;10.20;99.90
49503;DHT22;35409;48.776;9.204;2024-02-21T09:52:10;10.40;99.90
49503;DHT22;35409;48.776;9.204;2024-02-21T09:54:39;10.40;99.90
49503;DHT22;35409;48.776;9.204;2024-02-21T09:57:08;10.50;99.90
49503;DHT22;35409;48.776;9.204;2024-02-21T09:59:33;10.60;99.90
49503;DHT22;35409;48.776;9.204;2024-02-21T10:01:59;10.70;99.90
49503;DHT22;35409;48.776;9.204;2024-02-21T10:04:26;10.70;99.90
49503;DHT22;35409;48.776;9.204;2024-02-21T10:06:53;10.80;99.90
49503;DHT22;35409;48.776;9.204;2024-02-21T10:09:26;10.90;99.90
49503;DHT22;35409;48.776;9.204;2024-02-21T10:12:08;11.00;99.90
49503;DHT22;35409;48.776;9.204;2024-02-21T10:14:37;11.10;99.90
49503;DHT22;35409;48.776;9.204;2024-02-21T10:17:03;11.20;99.90
49503;DHT22;35409;48.776;9.204;2024-02-21T10:19:34;11.10;99.90
49503;DHT22;35409;48.776;9.204;2024-02-21T10:22:08;11.20;99.90
49503;DHT22;35409;48.776;9.204;2024-02-21T10:24:37;11.40;99.90
49503;DHT22;35409;48.776;9.204;2024-02-21T10:27:05;11.60;99.90
49503;DHT22;35409;48.776;9.204;2024-02-21T10:29:33;11.70;99.90
49503;DHT22;35409;48.776;9.204;2024-02-21T10:32:10;11.70;99.90
49503;DHT22;35409;48.776;9.204;2024-02-21T10:34:38;11.80;99.90
49503;DHT22;35409;48.776;9.204;2024-02-21T10:37:07;12.00;99.90
49503;DHT22;35409;48.776;9.204;2024-02-21T10:39:34;12.10;99.90
49503;DHT22;35409;48.776;9.204;2024-02-21T10:42:01;12.20;99.70
49503;DHT22;35409;48.776;9.204;2024-02-21T10:44:37;12.30;99.70
49503;DHT22;35409;48.776;9.204;2024-02-21T10:47:08;12.40;99.50
49503;DHT22;35409;48.776;9.204;2024-02-21T10:49:38;12.50;99.40
49503;DHT22;35409;48.776;9.204;2024-02-21T10:54:53;12.70;98.90
49503;DHT22;35409;48.776;9.204;2024-02-21T10:57:19;12.80;98.60
49503;DHT22;35409;48.776;9.204;2024-02-21T10:59:48;12.80;98.90
49503;DHT22;35409;48.776;9.204;2024-02-21T11:02:14;12.90;98.70
49503;DHT22;35409;48.776;9.204;2024-02-21T11:04:41;13.00;98.50
49503;DHT22;35409;48.776;9.204;2024-02-21T11:07:07;13.00;98.30
49503;DHT22;35409;48.776;9.204;2024-02-21T11:09:34;13.10;98.30
49503;DHT22;35409;48.776;9.204;2024-02-21T11:12:03;13.20;97.80
49503;DHT22;35409;48.776;9.204;2024-02-21T11:14:30;13.20;97.40
49503;DHT22;35409;48.776;9.204;2024-02-21T11:17:01;13.20;97.00
49503;DHT22;35409;48.776;9.204;2024-02-21T11:19:28;13.30;96.90
49503;DHT22;35409;48.776;9.204;2024-02-21T11:21:55;13.30;96.90
49503;DHT22;35409;48.776;9.204;2024-02-21T11:24:30;13.30;96.40
49503;DHT22;35409;48.776;9.204;2024-02-21T11:27:18;13.30;96.40
49503;DHT22;35409;48.776;9.204;2024-02-21T11:29:47;13.40;96.00
49503;DHT22;35409;48.776;9.204;2024-02-21T11:32:19;13.40;96.10
49503;DHT22;35409;48.776;9.204;2024-02-21T11:34:59;13.40;95.60
49503;DHT22;35409;48.776;9.204;2024-02-21T11:37:30;13.40;96.10
49503;DHT22;35409;48.776;9.204;2024-02-21T11:39:57;13.40;95.90
49503;DHT22;35409;48.776;9.204;2024-02-21T11:42:22;13.40;95.90
49503;DHT22;35409;48.776;9.204;2024-02-21T11:44:50;13.50;95.60
49503;DHT22;35409;48.776;9.204;2024-02-21T11:47:15;13.60;95.60
49503;DHT22;35409;48.776;9.204;2024-02-21T11:49:47;13.60;95.50
49503;DHT22;35409;48.776;9.204;2024-02-21T11:52:14;13.70;95.20
49503;DHT22;35409;48.776;9.204;2024-02-21T11:54:41;13.80;94.40
49503;DHT22;35409;48.776;9.204;2024-02-21T11:57:07;13.90;94.10
49503;DHT22;35409;48.776;9.204;2024-02-21T11:59:33;13.80;94.50
49503;DHT22;35409;48.776;9.204;2024-02-21T12:02:00;13.90;94.20
49503;DHT22;35409;48.776;9.204;2024-02-21T12:04:26;14.00;94.00
49503;DHT22;35409;48.776;9.204;2024-02-21T12:06:53;14.00;93.30
49503;DHT22;35409;48.776;9.204;2024-02-21T12:09:19;14.00;93.20
49503;DHT22;35409;48.776;9.204;2024-02-21T12:11:45;14.10;92.80
49503;DHT22;35409;48.776;9.204;2024-02-21T12:14:16;14.10;92.70
49503;DHT22;35409;48.776;9.204;2024-02-21T12:16:42;14.20;92.80
49503;DHT22;35409;48.776;9.204;2024-02-21T12:19:10;14.30;92.30
49503;DHT22;35409;48.776;9.204;2024-02-21T12:21:35;14.40;92.00
49503;DHT22;35409;48.776;9.204;2024-02-21T12:24:21;14.40;92.10
49503;DHT22;35409;48.776;9.204;2024-02-21T12:26:47;14.60;92.20
49503;DHT22;35409;48.776;9.204;2024-02-21T12:29:12;14.50;91.60
49503;DHT22;35409;48.776;9.204;2024-02-21T12:31:38;14.60;91.50
49503;DHT22;35409;48.776;9.204;2024-02-21T12:34:05;14.60;91.40
49503;DHT22;35409;48.776;9.204;2024-02-21T12:36:35;14.60;91.10
49503;DHT22;35409;48.776;9.204;2024-02-21T12:39:01;14.50;90.80
49503;DHT22;35409;48.776;9.204;2024-02-21T12:41:28;14.60;90.60
49503;DHT22;35409;48.776;9.204;2024-02-21T12:43:55;14.70;89.60
49503;DHT22;35409;48.776;9.204;2024-02-21T12:46:22;14.80;89.70
49503;DHT22;35409;48.776;9.204;2024-02-21T12:48:47;14.90;90.10
49503;DHT22;35409;48.776;9.204;2024-02-21T12:51:13;15.00;89.40
49503;DHT22;35409;48.776;9.204;2024-02-21T12:53:39;15.10;88.70
49503;DHT22;35409;48.776;9.204;2024-02-21T12:56:05;15.20;87.30
49503;DHT22;35409;48.776;9.204;2024-02-21T12:58:32;15.20;86.90
49503;DHT22;35409;48.776;9.204;2024-02-21T13:00:58;15.20;87.00
49503;DHT22;35409;48.776;9.204;2024-02-21T13:03:24;15.30;87.20
49503;DHT22;35409;48.776;9.204;2024-02-21T13:05:49;15.30;87.50
49503;DHT22;35409;48.776;9.204;2024-02-21T13:08:15;15.40;86.10
49503;DHT22;35409;48.776;9.204;2024-02-21T13:10:41;15.40;85.70
49503;DHT22;35409;48.776;9.204;2024-02-21T13:13:06;15.20;86.10
49503;DHT22;35409;48.776;9.204;2024-02-21T13:15:32;15.20;86.00
49503;DHT22;35409;48.776;9.204;2024-02-21T13:17:58;15.20;85.00
49503;DHT22;35409;48.776;9.204;2024-02-21T13:20:27;15.10;84.90
49503;DHT22;35409;48.776;9.204;2024-02-21T13:22:53;15.10;84.90
49503;DHT22;35409;48.776;9.204;2024-02-21T13:25:19;15.10;84.00
49503;DHT22;35409;48.776;9.204;2024-02-21T13:27:47;15.10;83.70
49503;DHT22;35409;48.776;9.204;2024-02-21T13:30:14;15.20;83.40
49503;DHT22;35409;48.776;9.204;2024-02-21T13:32:44;15.20;83.40
49503;DHT22;35409;48.776;9.204;2024-02-21T13:35:13;15.10;82.90
49503;DHT22;35409;48.776;9.204;2024-02-21T13:37:39;15.10;83.30
49503;DHT22;35409;48.776;9.204;2024-02-21T13:40:06;15.10;83.10
49503;DHT22;35409;48.776;9.204;2024-02-21T13:42:32;15.10;83.10
49503;DHT22;35409;48.776;9.204;2024-02-21T13:44:57;15.10;82.30
49503;DHT22;35409;48.776;9.204;2024-02-21T13:47:23;15.10;81.90
49503;DHT22;35409;48.776;9.204;2024-02-21T13:49:48;15.10;82.40
49503;DHT22;35409;48.776;9.204;2024-02-21T13:52:14;15.00;81.90
49503;DHT22;35409;48.776;9.204;2024-02-21T13:54:40;15.00;81.80
49503;DHT22;35409;48.776;9.204;2024-02-21T13:57:07;14.90;81.70
49503;DHT22;35409;48.776;9.204;2024-02-21T13:59:32;14.70;82.00
49503;DHT22;35409;48.776;9.204;2024-02-21T14:01:59;14.70;82.10
49503;DHT22;35409;48.776;9.204;2024-02-21T14:04:25;14.60;81.80
49503;DHT22;35409;48.776;9.204;2024-02-21T14:06:50;14.60;81.80
49503;DHT22;35409;48.776;9.204;2024-02-21T14:09:16;14.50;82.10
49503;DHT22;35409;48.776;9.204;2024-02-21T14:11:42;14.50;82.40
49503;DHT22;35409;48.776;9.204;2024-02-21T14:14:07;14.40;82.90
49503;DHT22;35409;48.776;9.204;2024-02-21T14:16:33;14.40;82.90
49503;DHT22;35409;48.776;9.204;2024-02-21T14:18:59;14.40;82.60
49503;DHT22;35409;48.776;9.204;2024-02-21T14:21:24;14.30;82.70
49503;DHT22;35409;48.776;9.204;2024-02-21T14:23:51;14.10;83.10
49503;DHT22;35409;48.776;9.204;2024-02-21T14:26:18;14.10;83.70
49503;DHT22;35409;48.776;9.204;2024-02-21T14:28:45;14.10;83.70
49503;DHT22;35409;48.776;9.204;2024-02-21T14:31:11;14.20;83.90
49503;DHT22;35409;48.776;9.204;2024-02-21T14:33:37;14.20;83.50
49503;DHT22;35409;48.776;9.204;2024-02-21T14:36:03;14.10;83.40
49503;DHT22;35409;48.776;9.204;2024-02-21T14:38:29;14.10;83.70
49503;DHT22;35409;48.776;9.204;2024-02-21T14:40:54;14.10;83.40
49503;DHT22;35409;48.776;9.204;2024-02-21T14:43:20;14.20;83.90
49503;DHT22;35409;48.776;9.204;2024-02-21T14:45:49;14.20;83.80
49503;DHT22;35409;48.776;9.204;2024-02-21T14:48:15;14.20;82.40
49503;DHT22;35409;48.776;9.204;2024-02-21T14:50:41;14.30;82.10
49503;DHT22;35409;48.776;9.204;2024-02-21T14:53:08;14.20;83.00
49503;DHT22;35409;48.776;9.204;2024-02-21T14:55:34;14.20;83.40
49503;DHT22;35409;48.776;9.204;2024-02-21T14:58:00;14.20;83.70
49503;DHT22;35409;48.776;9.204;2024-02-21T15:00:26;14.20;83.50
49503;DHT22;35409;48.776;9.204;2024-02-21T15:02:59;14.10;82.80
49503;DHT22;35409;48.776;9.204;2024-02-21T15:05:24;14.20;83.00
49503;DHT22;35409;48.776;9.204;2024-02-21T15:07:51;14.10;83.00
49503;DHT22;35409;48.776;9.204;2024-02-21T15:10:17;14.00;83.00
49503;DHT22;35409;48.776;9.204;2024-02-21T15:12:45;13.90;83.10
49503;DHT22;35409;48.776;9.204;2024-02-21T15:15:11;13.90;83.20
49503;DHT22;35409;48.776;9.204;2024-02-21T15:17:36;13.80;83.80
49503;DHT22;35409;48.776;9.204;2024-02-21T15:20:02;13.80;84.00
49503;DHT22;35409;48.776;9.204;2024-02-21T15:22:30;13.70;84.30
49503;DHT22;35409;48.776;9.204;2024-02-21T15:24:55;13.70;84.80
49503;DHT22;35409;48.776;9.204;2024-02-21T15:27:21;13.60;85.30
49503;DHT22;35409;48.776;9.204;2024-02-21T15:29:47;13.60;86.10
49503;DHT22;35409;48.776;9.204;2024-02-21T15:32:12;13.60;86.60
49503;DHT22;35409;48.776;9.204;2024-02-21T15:34:38;13.50;86.80
49503;DHT22;35409;48.776;9.204;2024-02-21T15:37:04;13.50;87.70
49503;DHT22;35409;48.776;9.204;2024-02-21T15:39:29;13.40;88.10
49503;DHT22;35409;48.776;9.204;2024-02-21T15:41:55;13.40;88.40
49503;DHT22;35409;48.776;9.204;2024-02-21T15:44:24;13.40;88.70
49503;DHT22;35409;48.776;9.204;2024-02-21T15:46:50;13.30;89.10
49503;DHT22;35409;48.776;9.204;2024-02-21T15:49:18;13.30;89.40
49503;DHT22;35409;48.776;9.204;2024-02-21T15:51:44;13.20;90.20
49503;DHT22;35409;48.776;9.204;2024-02-21T15:54:10;13.10;90.60
49503;DHT22;35409;48.776;9.204;2024-02-21T15:56:35;13.00;90.80
49503;DHT22;35409;48.776;9.204;2024-02-21T15:59:01;12.90;91.00
49503;DHT22;35409;48.776;9.204;2024-02-21T16:01:28;12.80;91.20
49503;DHT22;35409;48.776;9.204;2024-02-21T16:03:59;12.80;91.50
49503;DHT22;35409;48.776;9.204;2024-02-21T16:06:24;12.70;91.90
49503;DHT22;35409;48.776;9.204;2024-02-21T16:08:50;12.60;92.00
49503;DHT22;35409;48.776;9.204;2024-02-21T16:11:16;12.50;92.40
49503;DHT22;35409;48.776;9.204;2024-02-21T16:13:42;12.50;92.60
49503;DHT22;35409;48.776;9.204;2024-02-21T16:16:09;12.40;92.40
49503;DHT22;35409;48.776;9.204;2024-02-21T16:18:36;12.30;93.10
49503;DHT22;35409;48.776;9.204;2024-02-21T16:21:01;12.20;93.30
49503;DHT22;35409;48.776;9.204;2024-02-21T16:23:27;12.10;93.50
49503;DHT22;35409;48.776;9.204;2024-02-21T16:25:53;12.00;93.80
49503;DHT22;35409;48.776;9.204;2024-02-21T16:28:18;11.90;94.00
49503;DHT22;35409;48.776;9.204;2024-02-21T16:30:44;11.80;93.80
49503;DHT22;35409;48.776;9.204;2024-02-21T16:33:10;11.80;94.10
49503;DHT22;35409;48.776;9.204;2024-02-21T16:35:36;11.70;94.60
49503;DHT22;35409;48.776;9.204;2024-02-21T16:38:03;11.60;95.00
49503;DHT22;35409;48.776;9.204;2024-02-21T16:40:29;11.40;95.30
49503;DHT22;35409;48.776;9.204;2024-02-21T16:42:55;11.30;95.60
49503;DHT22;35409;48.776;9.204;2024-02-21T16:45:22;11.20;96.10
49503;DHT22;35409;48.776;9.204;2024-02-21T16:47:48;11.20;96.00
49503;DHT22;35409;48.776;9.204;2024-02-21T16:50:14;11.00;96.40
49503;DHT22;35409;48.776;9.204;2024-02-21T16:52:39;10.90;96.90
49503;DHT22;35409;48.776;9.204;2024-02-21T16:55:06;10.80;97.40
49503;DHT22;35409;48.776;9.204;2024-02-21T16:57:33;10.70;97.50
49503;DHT22;35409;48.776;9.204;2024-02-21T17:00:00;10.70;97.90
49503;DHT22;35409;48.776;9.204;2024-02-21T17:02:25;10.60;98.10
49503;DHT22;35409;48.776;9.204;2024-02-21T17:04:51;10.60;98.30
49503;DHT22;35409;48.776;9.204;2024-02-21T17:07:20;10.50;98.50
49503;DHT22;35409;48.776;9.204;2024-02-21T17:09:46;10.50;98.90
49503;DHT22;35409;48.776;9.204;2024-02-21T17:12:11;10.50;99.50
49503;DHT22;35409;48.776;9.204;2024-02-21T17:14:37;10.60;99.50
49503;DHT22;35409;48.776;9.204;2024-02-21T17:17:04;10.60;99.90
49503;DHT22;35409;48.776;9.204;2024-02-21T17:19:29;10.60;99.90
49503;DHT22;35409;48.776;9.204;2024-02-21T17:21:55;10.50;99.90
49503;DHT22;35409;48.776;9.204;2024-02-21T17:24:20;10.50;99.90
49503;DHT22;35409;48.776;9.204;2024-02-21T17:26:46;10.50;99.90
49503;DHT22;35409;48.776;9.204;2024-02-21T17:29:12;10.50;99.90
49503;DHT22;35409;48.776;9.204;2024-02-21T17:31:38;10.60;99.90
49503;DHT22;35409;48.776;9.204;2024-02-21T17:34:04;10.60;99.90
49503;DHT22;35409;48.776;9.204;2024-02-21T17:36:30;10.70;99.90
49503;DHT22;35409;48.776;9.204;2024-02-21T17:38:55;10.60;99.90
49503;DHT22;35409;48.776;9.204;2024-02-21T17:41:21;10.70;99.90
49503;DHT22;35409;48.776;9.204;2024-02-21T17:43:47;10.60;99.90
49503;DHT22;35409;48.776;9.204;2024-02-21T17:46:12;10.70;99.90
49503;DHT22;35409;48.776;9.204;2024-02-21T17:48:38;10.80;99.90
49503;DHT22;35409;48.776;9.204;2024-02-21T17:51:04;10.80;99.90
49503;DHT22;35409;48.776;9.204;2024-02-21T17:53:30;10.90;99.60
49503;DHT22;35409;48.776;9.204;2024-02-21T17:55:58;10.90;99.90
49503;DHT22;35409;48.776;9.204;2024-02-21T17:58:24;10.90;99.90
49503;DHT22;35409;48.776;9.204;2024-02-21T18:00:49;10.90;99.70
49503;DHT22;35409;48.776;9.204;2024-02-21T18:03:16;11.00;99.80
49503;DHT22;35409;48.776;9.204;2024-02-21T18:05:42;11.00;99.90
49503;DHT22;35409;48.776;9.204;2024-02-21T18:08:10;11.00;99.90
49503;DHT22;35409;48.776;9.204;2024-02-21T18:10:36;11.00;99.90
49503;DHT22;35409;48.776;9.204;2024-02-21T18:13:04;11.00;99.90
49503;DHT22;35409;48.776;9.204;2024-02-21T18:15:31;10.90;99.90
49503;DHT22;35409;48.776;9.204;2024-02-21T18:17:57;11.00;99.80
49503;DHT22;35409;48.776;9.204;2024-02-21T18:20:23;10.90;99.50
49503;DHT22;35409;48.776;9.204;2024-02-21T18:22:49;10.90;99.30
49503;DHT22;35409;48.776;9.204;2024-02-21T18:25:16;11.00;99.00
49503;DHT22;35409;48.776;9.204;2024-02-21T18:27:42;11.00;98.50
49503;DHT22;35409;48.776;9.204;2024-02-21T18:30:09;11.00;98.50
49503;DHT22;35409;48.776;9.204;2024-02-21T18:32:34;11.00;97.60
49503;DHT22;35409;48.776;9.204;2024-02-21T18:35:00;11.10;96.70
49503;DHT22;35409;48.776;9.204;2024-02-21T18:37:26;11.20;95.90
49503;DHT22;35409;48.776;9.204;2024-02-21T18:39:51;11.30;95.30
49503;DHT22;35409;48.776;9.204;2024-02-21T18:42:17;11.30;94.70
49503;DHT22;35409;48.776;9.204;2024-02-21T18:44:43;11.50;94.20
49503;DHT22;35409;48.776;9.204;2024-02-21T18:47:11;11.60;93.90
49503;DHT22;35409;48.776;9.204;2024-02-21T18:49:37;11.60;93.70
49503;DHT22;35409;48.776;9.204;2024-02-21T18:52:03;11.70;93.40
49503;DHT22;35409;48.776;9.204;2024-02-21T18:54:29;11.70;93.20
49503;DHT22;35409;48.776;9.204;2024-02-21T18:56:54;11.60;93.10
49503;DHT22;35409;48.776;9.204;2024-02-21T18:59:20;11.70;93.30
49503;DHT22;35409;48.776;9.204;2024-02-21T19:01:46;11.70;92.70
49503;DHT22;35409;48.776;9.204;2024-02-21T19:04:11;11.70;92.70
49503;DHT22;35409;48.776;9.204;2024-02-21T19:06:37;11.70;92.60
49503;DHT22;35409;48.776;9.204;2024-02-21T19:09:03;11.70;92.50
49503;DHT22;35409;48.776;9.204;2024-02-21T19:11:30;11.70;92.50
49503;DHT22;35409;48.776;9.204;2024-02-21T19:13:55;11.70;92.50
49503;DHT22;35409;48.776;9.204;2024-02-21T19:16:21;11.70;92.30
49503;DHT22;35409;48.776;9.204;2024-02-21T19:18:47;11.70;92.10
49503;DHT22;35409;48.776;9.204;2024-02-21T19:21:13;11.70;92.10
49503;DHT22;35409;48.776;9.204;2024-02-21T19:23:38;11.70;92.20
49503;DHT22;35409;48.776;9.204;2024-02-21T19:26:08;11.80;92.10
49503;DHT22;35409;48.776;9.204;2024-02-21T19:28:33;11.70;92.10
49503;DHT22;35409;48.776;9.204;2024-02-21T19:31:04;11.70;92.20
49503;DHT22;35409;48.776;9.204;2024-02-21T19:33:30;11.70;92.20
49503;DHT22;35409;48.776;9.204;2024-02-21T19:35:56;11.60;92.30
49503;DHT22;35409;48.776;9.204;2024-02-21T19:38:22;11.60;92.30
49503;DHT22;35409;48.776;9.204;2024-02-21T19:40:49;11.60;92.50
49503;DHT22;35409;48.776;9.204;2024-02-21T19:43:15;11.50;92.40
49503;DHT22;35409;48.776;9.204;2024-02-21T19:45:41;11.50;92.70
49503;DHT22;35409;48.776;9.204;2024-02-21T19:48:07;11.50;92.70
49503;DHT22;35409;48.776;9.204;2024-02-21T19:50:33;11.50;92.80
49503;DHT22;35409;48.776;9.204;2024-02-21T19:52:59;11.50;92.80
49503;DHT22;35409;48.776;9.204;2024-02-21T19:55:25;11.50;92.80
49503;DHT22;35409;48.776;9.204;2024-02-21T19:57:52;11.50;92.90
49503;DHT22;35409;48.776;9.204;2024-02-21T20:00:20;11.40;92.90
49503;DHT22;35409;48.776;9.204;2024-02-21T20:02:45;11.40;93.10
49503;DHT22;35409;48.776;9.204;2024-02-21T20:05:11;11.40;93.10
49503;DHT22;35409;48.776;9.204;2024-02-21T20:07:37;11.40;93.10
49503;DHT22;35409;48.776;9.204;2024-02-21T20:10:04;11.40;93.20
49503;DHT22;35409;48.776;9.204;2024-02-21T20:12:33;11.40;93.20
49503;DHT22;35409;48.776;9.204;2024-02-21T20:14:58;11.30;93.30
49503;DHT22;35409;48.776;9.204;2024-02-21T20:17:26;11.30;93.50
49503;DHT22;35409;48.776;9.204;2024-02-21T20:19:51;11.30;93.50
49503;DHT22;35409;48.776;9.204;2024-02-21T20:22:17;11.30;93.70
49503;DHT22;35409;48.776;9.204;2024-02-21T20:24:43;11.30;93.70
49503;DHT22;35409;48.776;9.204;2024-02-21T20:27:08;11.30;93.80
49503;DHT22;35409;48.776;9.204;2024-02-21T20:29:34;11.30;93.90
49503;DHT22;35409;48.776;9.204;2024-02-21T20:31:59;11.30;94.10
49503;DHT22;35409;48.776;9.204;2024-02-21T20:34:26;11.30;94.20
49503;DHT22;35409;48.776;9.204;2024-02-21T20:36:56;11.30;94.20
49503;DHT22;35409;48.776;9.204;2024-02-21T20:39:21;11.30;94.50
49503;DHT22;35409;48.776;9.204;2024-02-21T20:41:47;11.30;94.60
49503;DHT22;35409;48.776;9.204;2024-02-21T20:44:13;11.20;94.70
49503;DHT22;35409;48.776;9.204;2024-02-21T20:46:38;11.20;94.80
49503;DHT22;35409;48.776;9.204;2024-02-21T20:49:04;11.20;94.90
49503;DHT22;35409;48.776;9.204;2024-02-21T20:51:29;11.20;95.00
49503;DHT22;35409;48.776;9.204;2024-02-21T20:53:55;11.20;95.20
49503;DHT22;35409;48.776;9.204;2024-02-21T20:56:21;11.10;95.20
49503;DHT22;35409;48.776;9.204;2024-02-21T20:58:47;11.20;95.20
49503;DHT22;35409;48.776;9.204;2024-02-21T21:01:13;11.20;95.40
49503;DHT22;35409;48.776;9.204;2024-02-21T21:03:40;11.20;95.20
49503;DHT22;35409;48.776;9.204;2024-02-21T21:06:06;11.20;95.20
49503;DHT22;35409;48.776;9.204;2024-02-21T21:08:32;11.20;95.30
49503;DHT22;35409;48.776;9.204;2024-02-21T21:10:57;11.20;95.40
49503;DHT22;35409;48.776;9.204;2024-02-21T21:13:23;11.20;95.60
49503;DHT22;35409;48.776;9.204;2024-02-21T21:15:49;11.10;95.50
49503;DHT22;35409;48.776;9.204;2024-02-21T21:18:14;11.10;95.80